Time;durP1;ratioP1;P1;durP2;ratioP2;P2;SDS_P1;SDS_P2;PMS_P1;PMS_P2;Temp;Humidity;BMP_temperature;BMP_pressure;BME280_temperature;BME280_humidity;BME280_pressure;Samples;Min_cycle;Max_cycle;Signal;HPM_P1;HPM_P2
2022/08/18 00:02:24;;;;;;;5.78;4.63;;;19.00;99.90;;;18.81;100.00;96977.19;5013621;28;20446;-47
2022/08/18 00:04:52;;;;;;;6.38;4.45;;;19.00;99.90;;;18.75;100.00;96964.25;5012683;28;20033;-47
2022/08/18 00:07:26;;;;;;;5.30;4.45;;;18.90;99.90;;;18.72;100.00;96972.53;5013544;28;20421;-48
2022/08/18 00:09:52;;;;;;;4.78;4.15;;;18.90;99.90;;;18.66;100.00;96971.19;5013162;28;20367;-46
2022/08/18 00:12:26;;;;;;;7.45;4.20;;;18.80;99.90;;;18.68;100.00;96976.38;5014422;28;20108;-47
2022/08/18 00:14:54;;;;;;;4.95;4.20;;;18.80;99.90;;;18.62;100.00;96974.19;5011263;28;20058;-46
2022/08/18 00:17:21;;;;;;;5.75;4.60;;;18.80;99.90;;;18.55;100.00;96971.13;5013410;28;20026;-46
2022/08/18 00:19:47;;;;;;;4.55;4.07;;;18.70;99.90;;;18.51;100.00;96967.84;5009793;28;20083;-47
2022/08/18 00:22:18;;;;;;;5.35;4.63;;;18.60;99.90;;;18.50;100.00;96960.81;5014045;28;20029;-49
2022/08/18 00:24:48;;;;;;;6.10;3.80;;;18.60;99.90;;;18.44;100.00;96963.09;5012593;28;20033;-47
2022/08/18 00:27:20;;;;;;;5.47;4.63;;;18.60;99.90;;;18.25;100.00;96943.16;5013259;28;20040;-46
2022/08/18 00:29:46;;;;;;;6.10;4.68;;;18.50;99.90;;;18.34;100.00;96962.97;5011818;28;20041;-46
2022/08/18 00:32:33;;;;;;;5.43;4.03;;;18.50;99.90;;;18.32;100.00;96967.53;5013028;28;20131;-45
2022/08/18 00:35:17;;;;;;;5.40;4.57;;;18.50;99.90;;;18.29;100.00;96960.63;5013384;28;20033;-47
2022/08/18 00:37:43;;;;;;;4.07;3.67;;;18.40;99.90;;;18.26;100.00;96954.66;5014756;28;20062;-47
2022/08/18 00:40:13;;;;;;;4.80;4.20;;;18.40;99.90;;;18.24;100.00;96956.59;5013842;28;20040;-48
2022/08/18 00:42:53;;;;;;;5.07;4.20;;;18.40;99.90;;;18.23;100.00;96955.75;5012750;28;20030;-46
2022/08/18 00:45:26;;;;;;;4.25;3.85;;;18.40;99.90;;;18.24;100.00;96957.44;5012710;28;20609;-47
2022/08/18 00:47:52;;;;;;;;;;;18.40;99.90;;;18.23;100.00;96944.22;4995558;28;20092;-46
2022/08/18 00:50:23;;;;;;;4.80;4.05;;;18.40;99.90;;;18.20;100.00;96947.97;5009312;28;21353;-46
2022/08/18 00:53:06;;;;;;;4.45;4.03;;;18.40;99.90;;;18.23;100.00;96950.41;4995507;28;20036;-46
2022/08/18 00:55:33;;;;;;;4.95;4.03;;;18.30;99.90;;;18.22;100.00;96948.72;5010260;28;20282;-46
2022/08/18 00:58:06;;;;;;;4.82;3.95;;;18.40;99.90;;;18.22;100.00;96945.19;5011928;28;20096;-46
2022/08/18 01:00:33;;;;;;;4.70;3.83;;;18.40;99.90;;;18.22;100.00;96947.88;4993621;28;20024;-46
2022/08/18 01:03:04;;;;;;;4.65;3.83;;;18.30;99.90;;;18.22;100.00;96937.19;5010915;28;20370;-47
2022/08/18 01:05:39;;;;;;;7.63;4.10;;;18.30;99.90;;;18.23;100.00;96941.53;4995767;28;20037;-46
2022/08/18 01:08:10;;;;;;;4.15;3.53;;;18.40;99.90;;;18.23;100.00;96928.19;5010743;28;20038;-48
2022/08/18 01:10:37;;;;;;;5.03;4.47;;;18.30;99.90;;;18.22;100.00;96930.03;4995603;28;20029;-47
2022/08/18 01:13:03;;;;;;;4.47;3.85;;;18.30;99.90;;;18.18;100.00;96919.69;5011721;28;20045;-47
2022/08/18 01:15:28;;;;;;;4.25;3.72;;;18.30;99.90;;;18.22;100.00;96921.19;5011627;28;20410;-46
2022/08/18 01:24:04;;;;;;;5.85;3.88;;;18.30;99.90;;;18.22;100.00;96923.84;5010966;28;20200;-46
2022/08/18 01:26:34;;;;;;;4.88;4.15;;;18.30;99.90;;;18.21;100.00;96917.63;5011733;28;20071;-46
2022/08/18 01:29:10;;;;;;;4.20;3.80;;;18.30;99.90;;;18.21;100.00;96906.97;5013184;28;20052;-47
2022/08/18 01:31:54;;;;;;;4.13;3.70;;;18.30;99.90;;;18.20;100.00;96902.59;5010751;28;20030;-47
2022/08/18 01:34:24;;;;;;;4.82;3.60;;;18.30;99.90;;;18.18;100.00;96891.19;5011736;28;20033;-47
2022/08/18 01:36:51;;;;;;;4.28;3.88;;;18.30;99.90;;;18.19;100.00;96889.38;5012407;28;20030;-47
2022/08/18 01:39:19;;;;;;;4.50;3.90;;;18.30;99.90;;;18.19;100.00;96886.69;4998198;28;20022;-47
2022/08/18 01:41:44;;;;;;;4.85;4.07;;;18.30;99.90;;;18.19;100.00;96886.69;5011314;28;20033;-48
2022/08/18 01:44:10;;;;;;;4.82;4.03;;;18.30;99.90;;;18.18;100.00;96885.00;5009676;28;20032;-46
2022/08/18 01:46:40;;;;;;;4.47;4.00;;;18.30;99.90;;;18.17;100.00;96870.81;5014254;28;20111;-47
2022/08/18 01:49:07;;;;;;;4.93;3.90;;;18.30;99.90;;;18.18;100.00;96876.97;5031812;22;20085;-57
2022/08/18 01:51:36;;;;;;;4.82;3.55;;;18.30;99.90;;;18.17;100.00;96873.47;5023222;28;20453;-57
2022/08/18 01:54:03;;;;;;;4.63;3.90;;;18.30;99.90;;;18.17;100.00;96862.81;5023236;28;20017;-56
2022/08/18 01:56:29;;;;;;;3.95;3.55;;;18.30;99.90;;;18.17;100.00;96862.81;5022365;28;20143;-57
2022/08/18 01:58:55;;;;;;;5.43;4.05;;;18.30;99.90;;;18.16;100.00;96857.56;5025757;28;20517;-56
2022/08/18 02:01:23;;;;;;;4.45;3.90;;;18.30;99.90;;;18.13;100.00;96850.66;5023872;28;20128;-57
2022/08/18 02:03:54;;;;;;;4.85;3.42;;;18.30;99.90;;;18.06;100.00;96849.44;5022506;28;20018;-56
2022/08/18 02:06:20;;;;;;;4.40;4.00;;;18.20;99.90;;;18.04;100.00;96865.56;5004666;28;20037;-57
2022/08/18 02:08:47;;;;;;;4.22;3.67;;;18.20;99.90;;;18.01;100.00;96865.78;5020889;28;20115;-57
2022/08/18 02:11:13;;;;;;;4.47;3.65;;;18.20;99.90;;;17.97;100.00;96874.97;5021787;28;20512;-57
2022/08/18 02:13:39;;;;;;;4.57;3.75;;;18.10;99.90;;;17.97;100.00;96874.16;5021959;28;20029;-57
2022/08/18 02:16:06;;;;;;;4.70;3.72;;;18.10;99.90;;;17.97;100.00;96864.31;5021742;28;20392;-60
2022/08/18 02:18:35;;;;;;;4.95;4.25;;;18.10;99.90;;;17.95;100.00;96858.25;5023126;28;20022;-59
2022/08/18 02:21:14;;;;;;;4.60;3.85;;;18.10;99.90;;;17.92;100.00;96853.97;5024199;28;20017;-59
2022/08/18 02:23:42;;;;;;;4.75;4.20;;;18.10;99.90;;;17.87;100.00;96863.28;5022229;28;20022;-59
2022/08/18 02:26:11;;;;;;;5.68;4.35;;;18.00;99.90;;;17.82;100.00;96870.75;5022120;28;20025;-59
2022/08/18 02:28:37;;;;;;;4.13;3.65;;;18.00;99.90;;;17.79;100.00;96865.66;5025310;28;20056;-59
2022/08/18 02:31:05;;;;;;;4.30;3.90;;;17.90;99.90;;;17.74;100.00;96863.34;5023408;28;20095;-59
2022/08/18 02:33:30;;;;;;;5.63;4.00;;;17.90;99.90;;;17.77;100.00;96873.78;5021468;28;20030;-59
2022/08/18 02:35:56;;;;;;;4.30;3.88;;;18.00;99.90;;;17.78;100.00;96863.97;5021701;28;20032;-59
2022/08/18 02:38:22;;;;;;;4.30;3.90;;;17.90;99.90;;;17.81;100.00;96871.75;5023141;28;20035;-59
2022/08/18 02:41:01;;;;;;;4.43;3.85;;;17.90;99.90;;;17.82;100.00;96863.63;5021115;28;20032;-59
2022/08/18 02:43:28;;;;;;;4.72;4.05;;;17.90;99.90;;;17.78;100.00;96859.47;5020915;28;20474;-59
2022/08/18 02:45:54;;;;;;;5.13;4.63;;;18.00;99.90;;;17.83;100.00;96861.81;5019989;28;20037;-59
2022/08/18 02:48:38;;;;;;;6.65;4.50;;;18.00;99.90;;;17.81;100.00;96858.41;5021533;28;20533;-59
2022/08/18 02:51:14;;;;;;;5.40;4.60;;;18.00;99.90;;;17.85;100.00;96863.41;5022990;28;20032;-59
2022/08/18 02:53:43;;;;;;;4.68;4.20;;;18.00;99.90;;;17.86;100.00;96857.13;5021516;28;20032;-59
2022/08/18 02:58:44;;;;;;;5.55;4.50;;;18.00;99.90;;;17.85;100.00;96866.06;5021989;28;20033;-59
2022/08/18 03:01:10;;;;;;;4.85;4.30;;;18.00;99.90;;;17.86;100.00;96867.78;5003502;28;20025;-59
2022/08/18 03:03:37;;;;;;;5.05;3.85;;;18.00;99.90;;;17.87;100.00;96868.63;5021516;28;20033;-59
2022/08/18 03:06:03;;;;;;;4.30;3.88;;;18.10;99.90;;;17.84;100.00;96867.03;5022520;28;20041;-59
2022/08/18 03:08:29;;;;;;;7.45;4.60;;;18.00;99.90;;;17.83;100.00;96859.13;5021070;28;20112;-59
2022/08/18 03:10:55;;;;;;;5.40;4.10;;;18.00;99.90;;;17.79;100.00;96844.34;5024284;28;20108;-59
2022/08/18 03:13:20;;;;;;;4.05;3.65;;;18.00;99.90;;;17.78;100.00;96846.13;5021182;28;20040;-59
2022/08/18 03:15:46;;;;;;;6.25;4.35;;;18.00;99.90;;;17.79;100.00;96852.34;5020719;28;20045;-59
2022/08/18 03:18:13;;;;;;;4.07;3.67;;;17.90;99.90;;;17.74;100.00;96850.00;5003754;28;20072;-59
2022/08/18 03:20:39;;;;;;;5.47;3.97;;;17.90;99.90;;;17.70;100.00;96846.72;5022410;28;20025;-59
2022/08/18 03:23:05;;;;;;;4.72;4.20;;;17.90;99.90;;;17.69;100.00;96845.03;5023014;28;20021;-59
2022/08/18 03:25:31;;;;;;;6.55;4.68;;;17.90;99.90;;;17.71;100.00;96845.75;5002403;28;20093;-59
2022/08/18 03:27:57;;;;;;;5.40;4.18;;;17.90;99.90;;;17.71;100.00;96842.22;5005509;28;20068;-59
2022/08/18 03:30:22;;;;;;;4.90;4.40;;;17.90;99.90;;;17.70;100.00;96846.72;5021050;28;20057;-60
2022/08/18 03:32:49;;;;;;;3.92;3.60;;;17.80;99.90;;;17.65;100.00;96835.53;5021669;28;20045;-59
2022/08/18 03:35:15;;;;;;;5.35;4.00;;;17.80;99.90;;;17.69;100.00;96844.16;5005156;28;20029;-59
2022/08/18 03:37:41;;;;;;;6.82;4.10;;;17.80;99.90;;;17.68;100.00;96842.47;5002493;28;20068;-60
2022/08/18 03:40:09;;;;;;;6.90;4.55;;;17.80;99.90;;;17.67;100.00;96840.75;5019350;28;20120;-59
2022/08/18 03:42:36;;;;;;;4.68;4.18;;;17.80;99.90;;;17.67;100.00;96838.94;5021975;28;20049;-59
2022/08/18 03:45:02;;;;;;;5.30;4.03;;;17.80;99.90;;;17.68;100.00;96831.81;5023433;28;20084;-59
2022/08/18 03:47:28;;;;;;;4.70;4.10;;;17.80;99.90;;;17.68;100.00;96837.13;5001397;28;20034;-59
2022/08/18 03:49:54;;;;;;;5.30;4.28;;;17.80;99.90;;;17.67;100.00;96833.59;5020640;28;20049;-59
2022/08/18 03:52:20;;;;;;;4.30;3.90;;;17.80;99.90;;;17.67;100.00;96833.59;5019894;28;20057;-59
2022/08/18 03:54:45;;;;;;;4.20;3.80;;;17.80;99.90;;;17.66;100.00;96833.75;5021656;28;20460;-59
2022/08/18 03:57:12;;;;;;;4.53;3.92;;;17.80;99.90;;;17.67;100.00;96832.75;5019214;28;20056;-59
2022/08/18 03:59:40;;;;;;;5.05;3.80;;;17.80;99.90;;;17.68;100.00;96834.47;5020847;28;20060;-59
2022/08/18 04:02:06;;;;;;;5.03;4.07;;;17.80;99.90;;;17.67;100.00;96830.94;5020434;28;20087;-59
2022/08/18 04:04:32;;;;;;;4.43;4.03;;;17.80;99.90;;;17.69;100.00;96831.69;5019542;28;20025;-59
2022/08/18 04:07:03;;;;;;;6.00;4.10;;;17.80;99.90;;;17.71;100.00;96834.22;5021520;28;20169;-59
2022/08/18 04:09:31;;;;;;;4.65;3.65;;;17.80;99.90;;;17.70;100.00;96836.03;5002828;28;20033;-59
2022/08/18 04:12:03;;;;;;;5.53;4.38;;;17.80;99.90;;;17.71;100.00;96832.44;5020556;28;20057;-59
2022/08/18 04:14:30;;;;;;;4.23;3.83;;;17.80;99.90;;;17.70;100.00;96836.03;5022080;28;20040;-59
2022/08/18 04:16:57;;;;;;;4.95;4.03;;;17.80;99.90;;;17.71;100.00;96845.75;5020716;28;20086;-59
2022/08/18 04:19:24;;;;;;;5.38;4.30;;;17.90;99.90;;;17.72;100.00;96843.94;5020596;28;20430;-59
2022/08/18 04:21:51;;;;;;;4.93;4.25;;;17.80;99.90;;;17.71;100.00;96843.09;5002961;28;20113;-59
2022/08/18 04:24:17;;;;;;;6.53;4.47;;;17.80;99.90;;;17.71;100.00;96843.09;5002526;28;20108;-60
2022/08/18 04:26:46;;;;;;;5.95;4.38;;;17.90;99.90;;;17.73;100.00;96848.31;5020209;28;20144;-60
2022/08/18 04:29:15;;;;;;;5.63;4.30;;;17.90;99.90;;;17.73;100.00;96851.81;5018164;28;20026;-59
2022/08/18 04:31:41;;;;;;;5.38;4.13;;;17.90;99.90;;;17.75;100.00;96860.56;5021850;28;20695;-59
2022/08/18 04:34:07;;;;;;;4.68;4.10;;;17.90;99.90;;;17.77;100.00;96859.59;5020763;28;20099;-59
2022/08/18 04:36:35;;;;;;;5.10;4.30;;;17.90;99.90;;;17.81;100.00;96859.25;5019140;28;20440;-59
2022/08/18 04:39:03;;;;;;;6.03;3.92;;;17.90;99.90;;;17.83;100.00;96851.97;5022044;28;20236;-59
2022/08/18 04:41:29;;;;;;;5.35;4.78;;;18.00;99.90;;;17.87;100.00;96849.97;5020166;28;20195;-59
2022/08/18 04:44:02;;;;;;;5.30;4.10;;;18.00;99.90;;;17.90;100.00;96860.41;5018594;28;20493;-60
2022/08/18 04:46:30;;;;;;;5.32;4.35;;;18.00;99.90;;;17.93;100.00;96857.53;5020560;28;20025;-60
2022/08/18 04:48:58;;;;;;;4.63;3.97;;;18.00;99.90;;;17.94;100.00;96861.88;5000649;28;20207;-59
2022/08/18 04:51:28;;;;;;;4.47;4.05;;;18.10;99.90;;;17.97;100.00;96863.47;5018562;28;20531;-59
2022/08/18 04:53:55;;;;;;;5.68;4.65;;;18.10;99.90;;;18.01;100.00;96870.28;5020476;28;20179;-59
2022/08/18 04:56:29;;;;;;;4.65;4.07;;;18.10;99.90;;;18.03;100.00;96869.19;5018147;28;20041;-59
2022/08/18 04:59:12;;;;;;;6.28;4.32;;;18.20;99.90;;;18.08;100.00;96883.03;5019878;28;20026;-59
2022/08/18 05:01:40;;;;;;;;;;;18.20;99.90;;;18.13;100.00;96880.88;5020290;28;20055;-59
2022/08/18 05:04:07;;;;;;;4.38;3.80;;;18.30;99.90;;;18.21;100.00;96885.59;5003324;28;20364;-59
2022/08/18 05:06:34;;;;;;;5.63;4.18;;;18.30;99.90;;;18.25;100.00;96881.75;5018645;28;20108;-59
2022/08/18 05:09:07;;;;;;;6.35;4.05;;;18.40;99.90;;;18.39;100.00;96883.34;5022053;28;20034;-59
2022/08/18 05:11:34;;;;;;;6.05;4.70;;;18.50;99.90;;;18.50;100.00;96890.53;5018191;28;20060;-59
2022/08/18 05:14:03;;;;;;;4.50;4.10;;;18.60;99.90;;;18.59;100.00;96881.84;5018836;28;20022;-59
2022/08/18 05:16:35;;;;;;;5.05;4.25;;;18.70;99.90;;;18.68;100.00;96883.78;5019936;28;20041;-59
2022/08/18 05:19:03;;;;;;;4.07;3.67;;;18.80;99.90;;;18.74;100.00;96882.44;5021392;28;20026;-59
2022/08/18 05:21:29;;;;;;;7.00;3.95;;;18.90;99.90;;;18.80;100.00;96873.94;5021741;28;20041;-60
2022/08/18 05:23:54;;;;;;;5.47;4.10;;;18.90;99.90;;;18.89;100.00;96872.41;5005311;28;20029;-59
2022/08/18 05:26:20;;;;;;;4.20;3.75;;;19.00;99.90;;;19.03;100.00;96866.81;5023708;28;20113;-59
2022/08/18 05:28:47;;;;;;;5.05;3.97;;;19.10;99.90;;;19.18;100.00;96869.22;5022804;28;20038;-59
2022/08/18 05:31:21;;;;;;;5.38;3.83;;;19.20;99.90;;;19.31;100.00;96866.41;5022059;28;20038;-59
2022/08/18 05:33:48;;;;;;;6.82;4.70;;;19.30;99.90;;;19.43;100.00;96868.09;5002547;28;20029;-59
2022/08/18 05:36:45;;;;;;;5.13;4.13;;;19.50;99.90;;;19.52;100.00;96866.50;5023178;28;20095;-59
2022/08/18 05:39:17;;;;;;;3.70;3.40;;;19.60;99.90;;;19.57;100.00;96858.97;5002630;28;20052;-60
2022/08/18 05:42:02;;;;;;;5.30;4.60;;;19.60;99.90;;;19.62;100.00;96873.66;5021617;28;20063;-59
2022/08/18 05:44:33;;;;;;;6.22;4.53;;;19.70;99.90;;;19.67;100.00;96872.41;5002656;28;20029;-59
2022/08/18 05:47:06;;;;;;;4.70;4.10;;;19.80;99.90;;;19.78;100.00;96875.09;5003945;28;20083;-59
2022/08/18 05:49:34;;;;;;;4.20;3.80;;;19.90;99.90;;;19.81;100.00;96869.47;5002371;28;20312;-59
2022/08/18 05:52:08;;;;;;;6.85;3.92;;;19.90;99.90;;;19.80;100.00;96873.16;5019291;28;20191;-59
2022/08/18 05:57:43;;;;;;;4.70;4.20;;;19.80;99.90;;;19.64;100.00;96852.97;5024320;28;20064;-59
2022/08/18 06:00:10;;;;;;;4.38;3.90;;;19.70;99.90;;;19.56;100.00;96854.56;5023275;28;20163;-59
2022/08/18 06:02:51;;;;;;;4.30;3.90;;;19.70;99.90;;;19.55;100.00;96859.09;5021879;28;20473;-59
2022/08/18 06:05:30;;;;;;;4.00;3.60;;;19.60;99.90;;;19.54;100.00;96868.09;5003076;28;20033;-59
2022/08/18 06:08:01;;;;;;;4.63;3.88;;;19.60;99.90;;;19.54;100.00;96872.56;5005011;28;20095;-60
2022/08/18 06:10:27;;;;;;;5.80;4.18;;;19.60;99.90;;;19.56;100.00;96876.84;5023177;28;20064;-59
2022/08/18 06:13:01;;;;;;;5.95;4.03;;;19.60;99.90;;;19.62;100.00;96881.69;5005965;28;20029;-59
2022/08/18 06:15:55;;;;;;;5.65;4.63;;;19.70;99.90;;;19.71;100.00;96887.25;5023241;28;20033;-59
2022/08/18 06:18:44;;;;;;;5.03;4.50;;;19.80;99.90;;;19.83;100.00;96878.25;5004091;28;20029;-59
2022/08/18 06:21:28;;;;;;;7.40;5.18;;;19.90;99.90;;;20.00;100.00;96884.88;4986697;28;21473;-59
2022/08/18 06:24:39;;;;;;;5.70;4.72;;;20.10;99.90;;;20.20;100.00;96891.22;5024472;28;20742;-59
2022/08/18 06:27:43;;;;;;;7.68;5.10;;;20.20;99.90;;;20.37;98.80;96913.91;5006365;28;20472;-59
2022/08/18 06:30:19;;;;;;;6.75;5.07;;;20.40;99.90;;;20.56;98.02;96906.00;5021752;28;20025;-59
2022/08/18 06:33:32;;;;;;;6.30;5.07;;;20.60;99.90;;;20.64;94.94;96894.69;5022953;28;20032;-59
2022/08/18 06:36:11;;;;;;;5.25;4.75;;;20.80;99.90;;;20.88;95.48;96899.72;5006704;28;20021;-59
2022/08/18 06:38:49;;;;;;;5.55;4.65;;;21.00;99.90;;;21.07;93.75;96903.50;5021460;28;20029;-59
2022/08/18 06:41:35;;;;;;;5.78;4.57;;;21.10;99.90;;;21.15;92.35;96903.66;5023017;28;20755;-59
2022/08/18 06:44:07;;;;;;;4.75;4.22;;;21.20;99.90;;;21.25;91.73;96899.19;5022368;28;20036;-59
2022/08/18 06:46:40;;;;;;;6.47;5.20;;;21.30;99.90;;;21.31;90.25;96897.81;5020238;28;20532;-59
2022/08/18 06:49:20;;;;;;;4.80;4.32;;;21.30;99.90;;;21.25;90.12;96868.88;5021345;28;20057;-59
2022/08/18 06:51:46;;;;;;;5.63;4.75;;;21.30;99.90;;;21.31;89.97;96866.47;5001114;28;20021;-59
2022/08/18 06:54:20;;;;;;;5.57;4.78;;;21.40;99.90;;;21.42;90.03;96878.91;5020224;28;20587;-59
2022/08/18 06:56:50;;;;;;;5.68;4.30;;;21.40;99.90;;;21.49;89.58;96880.09;5004328;28;20037;-59
2022/08/18 06:59:31;;;;;;;4.60;4.15;;;21.50;99.90;;;21.61;90.26;96880.00;5020892;28;20075;-59
2022/08/18 07:02:20;;;;;;;5.30;4.65;;;21.60;99.90;;;21.74;88.76;96880.56;5002858;28;20052;-59
2022/08/18 07:05:06;;;;;;;4.72;4.10;;;21.70;99.90;;;21.87;87.50;96891.88;5022437;28;20055;-59
2022/08/18 07:07:41;;;;;;;7.90;4.72;;;21.80;99.90;;;22.01;87.29;96879.06;5023269;28;20056;-59
2022/08/18 07:10:32;;;;;;;7.15;4.82;;;22.00;99.90;;;22.14;83.87;96893.03;5024733;28;20119;-59
2022/08/18 07:13:16;;;;;;;6.68;5.05;;;22.10;99.90;;;22.20;83.82;96900.53;5021933;28;20116;-59
2022/08/18 07:15:44;;;;;;;5.63;4.30;;;22.20;99.90;;;22.24;82.23;96899.25;5018391;28;20056;-57
2022/08/18 07:18:12;;;;;;;4.80;4.25;;;22.30;99.90;;;22.35;81.51;96908.19;5020165;28;20025;-57
2022/08/18 07:20:52;;;;;;;5.60;4.97;;;22.40;99.90;;;22.38;80.54;96915.94;5020951;28;20025;-56
2022/08/18 07:23:39;;;;;;;10.90;4.30;;;22.40;99.90;;;22.43;81.29;96929.81;5022505;28;20045;-57
2022/08/18 07:26:13;;;;;;;5.95;4.43;;;22.50;99.90;;;22.49;79.33;96938.16;5021290;28;20033;-56
2022/08/18 07:28:47;;;;;;;4.75;3.95;;;22.60;99.90;;;22.50;79.90;96939.00;5020457;28;20424;-56
2022/08/18 07:31:36;;;;;;;6.10;4.63;;;22.60;99.90;;;22.40;80.24;96938.19;5001588;28;20022;-57
2022/08/18 07:34:11;;;;;;;5.35;3.95;;;22.50;99.90;;;22.30;80.40;96939.00;5003016;28;20363;-57
2022/08/18 07:36:58;;;;;;;5.05;4.55;;;22.40;99.90;;;22.23;80.32;96937.84;5021290;28;20120;-57
2022/08/18 07:39:36;;;;;;;7.07;4.38;;;22.30;99.90;;;22.11;80.46;96945.19;5004937;28;20385;-57
2022/08/18 07:42:27;;;;;;;5.07;4.30;;;22.20;99.90;;;21.97;81.08;96950.13;5022702;28;20052;-56
2022/08/18 07:45:09;;;;;;;6.03;4.20;;;22.00;99.90;;;21.82;81.94;96953.22;5003395;28;20045;-57
2022/08/18 07:50:16;;;;;;;5.73;4.47;;;21.80;99.90;;;21.48;84.20;96958.91;5041051;28;20122;-46
2022/08/18 07:53:05;;;;;;;4.45;4.05;;;21.60;99.90;;;21.31;84.67;96954.13;5043334;28;20496;-48
2022/08/18 07:55:36;;;;;;;3.97;3.53;;;21.40;99.90;;;21.28;85.36;96949.03;5027362;28;20531;-48
2022/08/18 07:58:22;;;;;;;4.55;4.13;;;21.30;99.90;;;21.25;85.44;96941.25;5027255;28;20115;-46
2022/08/18 08:01:09;;;;;;;4.20;3.80;;;21.30;99.90;;;21.26;85.79;96949.16;5041932;28;20025;-46
2022/08/18 08:04:01;;;;;;;4.53;4.13;;;21.30;99.90;;;21.26;86.44;96948.31;5043808;28;20389;-48
2022/08/18 08:06:48;;;;;;;5.78;3.92;;;21.30;99.90;;;21.23;86.58;96959.28;5043079;28;20039;-49
2022/08/18 08:09:30;;;;;;;4.60;4.15;;;21.30;99.90;;;21.13;87.38;96944.00;5026591;28;20519;-47
2022/08/18 08:12:23;;;;;;;6.83;4.30;;;21.20;99.90;;;21.10;87.69;96944.31;5027718;28;20547;-50
2022/08/18 08:15:01;;;;;;;4.90;3.88;;;21.20;99.90;;;21.04;89.13;96943.97;5043357;28;20334;-47
2022/08/18 08:17:39;;;;;;;6.18;4.88;;;21.10;99.90;;;20.95;88.64;96948.31;5024007;28;20063;-47
2022/08/18 08:20:22;;;;;;;5.05;3.80;;;21.10;99.90;;;20.91;89.00;96947.72;5043659;28;20036;-48
2022/08/18 08:23:24;;;;;;;5.72;4.40;;;21.00;99.90;;;20.92;89.00;96940.53;5028109;28;20047;-50
2022/08/18 08:26:11;;;;;;;4.40;3.80;;;21.00;99.90;;;21.00;89.44;96913.91;5027229;28;20020;-46
2022/08/18 08:29:17;;;;;;;5.55;4.45;;;21.00;99.90;;;21.13;89.18;96911.00;5042511;28;20118;-46
2022/08/18 08:31:56;;;;;;;5.30;4.45;;;21.20;99.90;;;21.33;88.77;96915.44;5042508;28;20580;-49
2022/08/18 08:34:34;;;;;;;4.53;4.05;;;21.40;99.90;;;21.54;87.88;96910.03;5043207;28;20021;-47
2022/08/18 08:37:04;;;;;;;10.45;5.10;;;21.60;99.90;;;21.68;85.71;96916.03;5043823;28;20029;-49
2022/08/18 08:39:59;;;;;;;4.60;4.05;;;21.80;99.90;;;21.90;84.90;96910.41;5026596;28;20082;-48
2022/08/18 08:42:55;;;;;;;4.55;4.10;;;22.00;99.90;;;22.22;83.64;96913.84;5025162;28;20033;-49
2022/08/18 08:45:28;;;;;;;6.53;4.60;;;22.30;99.90;;;22.51;82.16;96915.69;5027242;28;20033;-50
2022/08/18 08:48:23;;;;;;;5.18;4.50;;;22.60;99.90;;;22.84;79.98;96908.97;5025089;28;20380;-49
2022/08/18 08:50:53;;;;;;;6.80;4.75;;;22.90;99.90;;;23.13;78.74;96903.53;5026131;28;20025;-46
2022/08/18 08:53:26;;;;;;;6.40;4.55;;;23.20;99.90;;;23.30;76.75;96899.22;5025559;28;21194;-50
2022/08/18 08:55:57;;;;;;;7.32;4.40;;;23.40;99.90;;;23.59;76.52;96898.22;5028010;28;20035;-47
2022/08/18 08:58:38;;;;;;;4.35;3.90;;;23.60;99.90;;;23.88;75.73;96891.84;5030883;28;20032;-46
2022/08/18 09:01:19;;;;;;;5.90;4.28;;;23.90;99.90;;;24.05;75.24;96890.13;5046268;28;20029;-46
2022/08/18 09:04:20;;;;;;;5.20;4.10;;;24.10;99.90;;;24.15;73.21;96909.78;5030328;28;20021;-48
2022/08/18 09:07:07;;;;;;;6.13;4.65;;;24.20;99.90;;;24.10;73.17;96912.94;5031139;28;20028;-47
2022/08/18 09:09:52;;;;;;;6.88;5.43;;;24.30;99.90;;;23.98;73.42;96908.78;5046898;28;20027;-46
2022/08/18 09:12:48;;;;;;;5.10;4.47;;;24.20;99.90;;;24.04;73.92;96892.00;5029445;28;20484;-48
2022/08/18 09:15:53;;;;;;;8.65;4.75;;;24.10;99.90;;;24.12;74.41;96883.13;5031388;28;20036;-48
2022/08/18 09:18:50;;;;;;;5.35;4.60;;;24.30;99.90;;;24.48;74.96;96878.59;5047272;28;20025;-46
2022/08/18 09:21:44;;;;;;;7.53;4.72;;;24.50;99.90;;;24.75;72.47;96869.53;5045358;28;20035;-50
2022/08/18 09:24:37;;;;;;;7.50;4.20;;;24.80;99.90;;;25.06;71.57;96873.59;5045778;28;20040;-50
2022/08/18 09:27:03;;;;;;;9.00;5.38;;;25.10;99.90;;;25.22;70.94;96875.53;5046138;28;20037;-45
2022/08/18 09:29:38;;;;;;;6.80;5.35;;;25.40;99.90;;;25.25;69.06;96884.19;5047185;28;20094;-47
2022/08/18 09:32:19;;;;;;;5.10;4.60;;;25.40;99.90;;;25.21;70.45;96865.75;5045724;28;20025;-47
2022/08/18 09:34:50;;;;;;;9.73;6.15;;;25.40;99.90;;;25.25;69.05;96889.59;5047393;28;20017;-47
2022/08/18 09:44:09;;;;;;;5.28;4.70;;;25.90;99.90;;;25.67;67.87;96896.81;5033164;28;20572;-47
2022/08/18 09:46:40;;;;;;;10.32;5.70;;;25.80;99.90;;;25.41;68.09;96898.75;4949938;28;20031;-46
2022/08/18 09:49:42;;;;;;;7.72;6.40;;;25.60;99.90;;;25.13;68.71;96896.22;4964058;28;20035;-50
2022/08/18 09:52:19;;;;;;;8.02;5.90;;;25.40;99.90;;;24.87;71.33;96902.50;5030068;28;20060;-46
2022/08/18 09:55:00;;;;;;;6.40;5.05;;;25.20;99.90;;;24.90;72.63;96910.25;5045479;28;20036;-46
2022/08/18 09:57:37;;;;;;;6.10;5.50;;;25.10;99.90;;;24.87;70.97;96905.19;5047064;28;20036;-50
2022/08/18 10:00:03;;;;;;;7.25;5.93;;;25.10;99.90;;;24.94;72.35;96916.16;5028872;28;20483;-46
2022/08/18 10:02:29;;;;;;;6.47;5.78;;;25.10;99.90;;;24.83;71.84;96919.13;5046678;28;20057;-48
2022/08/18 10:05:17;;;;;;;7.38;6.32;;;25.10;99.90;;;24.72;70.61;96918.38;5046192;28;20405;-49
2022/08/18 10:07:54;;;;;;;6.57;5.50;;;24.90;99.90;;;24.85;70.79;96917.97;5028379;28;20496;-49
2022/08/18 10:10:46;;;;;;;6.45;5.85;;;24.90;99.90;;;24.95;70.44;96917.88;5030618;28;20029;-49
2022/08/18 10:13:49;;;;;;;9.10;6.22;;;25.10;99.90;;;24.98;70.87;96903.22;5027248;28;20508;-47
2022/08/18 10:16:32;;;;;;;8.23;5.55;;;25.20;99.90;;;25.05;71.32;96902.44;5045683;28;20039;-49
2022/08/18 10:19:23;;;;;;;8.65;5.60;;;25.10;99.90;;;25.03;70.02;96884.69;5045857;28;20025;-47
2022/08/18 10:21:55;;;;;;;5.80;5.00;;;25.10;99.90;;;25.08;71.09;96879.69;5021544;28;20037;-46
2022/08/18 10:24:27;;;;;;;7.47;5.60;;;25.10;99.90;;;25.13;69.95;96888.13;5045547;28;20094;-46
2022/08/18 10:26:53;;;;;;;7.32;5.35;;;25.10;99.90;;;24.96;70.44;96889.88;5044619;28;20036;-47
2022/08/18 10:29:28;;;;;;;7.03;6.00;;;25.00;99.90;;;24.88;70.61;96873.66;5045469;28;20087;-46
2022/08/18 10:31:54;;;;;;;8.93;6.85;;;24.90;99.90;;;24.85;69.78;96869.41;5045043;28;20448;-48
2022/08/18 10:34:39;;;;;;;8.25;6.82;;;24.90;99.90;;;24.98;70.91;96851.97;5045990;28;20144;-49
2022/08/18 10:37:21;;;;;;;7.85;6.90;;;25.10;99.90;;;24.93;70.35;96845.22;5043341;28;20071;-47
2022/08/18 10:39:53;;;;;;;7.57;6.15;;;25.10;99.90;;;24.86;69.67;96829.84;5042825;28;20025;-47
2022/08/18 10:42:42;;;;;;;9.07;7.32;;;25.00;99.90;;;24.92;69.13;96803.06;5044613;28;20021;-47
2022/08/18 10:45:25;;;;;;;9.38;6.80;;;25.00;99.90;;;25.00;69.86;96813.06;5026224;28;20421;-48
2022/08/18 10:48:03;;;;;;;9.63;7.20;;;25.10;99.90;;;25.13;69.19;96828.78;5044953;28;20270;-49
2022/08/18 10:50:47;;;;;;;7.22;6.43;;;25.20;99.90;;;25.23;68.25;96843.00;5044670;28;20033;-46
2022/08/18 10:53:57;;;;;;;9.63;6.28;;;25.30;99.90;;;25.48;68.06;96843.09;5029544;28;20055;-46
2022/08/18 10:56:46;;;;;;;7.65;6.20;;;25.60;99.90;;;25.62;65.02;96828.97;5028378;28;20043;-48
2022/08/18 10:59:37;;;;;;;7.57;6.13;;;25.70;99.90;;;25.74;64.82;96821.41;5043408;28;20107;-48
2022/08/18 11:02:42;;;;;;;5.93;5.38;;;25.80;99.90;;;25.81;63.73;96827.00;5027698;28;20031;-46
2022/08/18 11:05:11;;;;;;;8.95;6.05;;;25.80;99.90;;;25.68;65.22;96822.94;5043908;28;20029;-46
2022/08/18 11:07:42;;;;;;;7.90;5.93;;;25.70;99.90;;;25.69;64.06;96821.06;5029464;28;20116;-48
2022/08/18 11:10:33;;;;;;;10.80;6.85;;;25.70;99.80;;;25.72;63.99;96823.44;5044221;28;20039;-47